createdAt,value
2022-08-26T00:01:56.669Z,5.20
2022-08-26T00:04:26.060Z,4.17
2022-08-26T00:06:55.692Z,4.13
2022-08-26T00:09:25.279Z,4.73
2022-08-26T00:11:54.620Z,5.53
2022-08-26T00:14:27.195Z,4.60
2022-08-26T00:16:57.848Z,11.90
2022-08-26T00:19:25.374Z,4.37
2022-08-26T00:21:53.020Z,4.53
2022-08-26T00:24:21.678Z,4.00
2022-08-26T00:26:49.842Z,7.80
2022-08-26T00:29:17.938Z,4.83
2022-08-26T00:31:45.726Z,5.70
2022-08-26T00:34:14.228Z,5.17
2022-08-26T00:36:43.531Z,5.10
2022-08-26T00:39:11.477Z,5.13
2022-08-26T00:41:40.894Z,9.87
2022-08-26T00:44:10.934Z,4.73
2022-08-26T00:46:46.653Z,5.27
2022-08-26T00:49:47.745Z,4.80
2022-08-26T00:52:19.804Z,4.67
2022-08-26T00:55:07.366Z,5.57
2022-08-26T00:57:36.111Z,5.97
2022-08-26T01:00:10.426Z,5.67
2022-08-26T01:02:38.777Z,4.63
2022-08-26T01:05:15.709Z,4.90
2022-08-26T01:07:43.984Z,4.57
2022-08-26T01:10:19.252Z,5.60
2022-08-26T01:12:52.295Z,5.13
2022-08-26T01:15:24.775Z,5.13
2022-08-26T01:17:52.386Z,7.70
2022-08-26T01:20:43.942Z,5.40
2022-08-26T01:23:12.074Z,5.83
2022-08-26T01:25:43.183Z,4.57
2022-08-26T01:28:16.671Z,5.03
2022-08-26T01:30:47.185Z,4.40
2022-08-26T01:33:19.050Z,4.60
2022-08-26T01:35:48.133Z,5.00
2022-08-26T01:38:16.297Z,6.03
2022-08-26T01:40:45.781Z,4.60
2022-08-26T01:43:25.246Z,4.50
2022-08-26T01:45:54.952Z,4.20
2022-08-26T01:48:28.170Z,4.23
2022-08-26T01:50:57.283Z,5.00
2022-08-26T01:53:26.287Z,4.97
2022-08-26T01:55:58.258Z,4.70
2022-08-26T01:58:37.566Z,6.67
2022-08-26T02:01:06.267Z,4.70
2022-08-26T02:03:36.496Z,4.90
2022-08-26T02:06:09.225Z,5.30
2022-08-26T02:08:50.748Z,6.63
2022-08-26T02:11:18.613Z,4.90
2022-08-26T02:13:53.242Z,5.23
2022-08-26T02:16:26.397Z,9.07
2022-08-26T02:18:55.449Z,8.80
2022-08-26T02:21:22.872Z,4.83
2022-08-26T02:23:52.831Z,5.10
2022-08-26T02:26:26.971Z,5.07
2022-08-26T02:29:02.165Z,4.90
2022-08-26T02:31:29.827Z,6.70
2022-08-26T02:34:14.597Z,5.97
2022-08-26T02:36:42.818Z,4.93
2022-08-26T02:39:10.704Z,4.77
2022-08-26T02:41:44.869Z,4.77
2022-08-26T02:44:13.129Z,5.93
2022-08-26T02:46:41.550Z,5.27
2022-08-26T02:49:17.630Z,4.50
2022-08-26T02:51:46.619Z,4.80
2022-08-26T02:54:14.036Z,5.47
2022-08-26T02:56:42.325Z,7.37
2022-08-26T02:59:12.546Z,4.83
2022-08-26T03:01:41.253Z,5.03
2022-08-26T03:04:11.225Z,4.67
2022-08-26T03:06:40.742Z,4.60
2022-08-26T03:09:09.780Z,5.13
2022-08-26T03:11:41.459Z,5.47
2022-08-26T03:14:08.745Z,5.30
2022-08-26T03:16:37.305Z,5.00
2022-08-26T03:19:08.227Z,5.53
2022-08-26T03:21:37.463Z,4.87
2022-08-26T03:24:05.640Z,5.30
2022-08-26T03:26:32.939Z,5.77
2022-08-26T03:29:18.669Z,6.13
2022-08-26T03:31:46.913Z,6.30
2022-08-26T03:34:15.051Z,5.63
2022-08-26T03:36:43.245Z,4.50
2022-08-26T03:39:11.915Z,4.93
2022-08-26T03:41:40.441Z,5.00
2022-08-26T03:44:08.998Z,5.07
2022-08-26T03:46:37.182Z,5.53
2022-08-26T03:49:05.970Z,5.67
2022-08-26T03:51:34.807Z,5.60
2022-08-26T03:54:06.656Z,4.93
2022-08-26T03:56:36.655Z,6.30
2022-08-26T03:59:04.850Z,7.67
2022-08-26T04:01:35.307Z,5.40
2022-08-26T04:04:03.359Z,5.70
2022-08-26T04:06:42.906Z,6.90
2022-08-26T04:09:15.359Z,5.40
2022-08-26T04:11:44.488Z,6.63
2022-08-26T04:14:17.608Z,5.40
2022-08-26T04:16:48.528Z,5.30
2022-08-26T04:19:17.005Z,5.67
2022-08-26T04:21:45.751Z,4.83
2022-08-26T04:24:15.569Z,7.13
2022-08-26T04:26:44.021Z,5.07
2022-08-26T04:29:18.364Z,6.03
2022-08-26T04:31:48.154Z,5.57
2022-08-26T04:34:16.974Z,5.73
2022-08-26T04:36:45.047Z,5.43
2022-08-26T04:39:14.168Z,7.20
2022-08-26T04:41:41.553Z,5.33
2022-08-26T04:44:09.030Z,5.50
2022-08-26T04:46:39.660Z,5.30
2022-08-26T04:49:08.224Z,6.80
2022-08-26T04:51:36.287Z,5.27
2022-08-26T04:54:06.741Z,6.47
2022-08-26T04:56:39.714Z,5.83
2022-08-26T04:59:16.580Z,6.40
2022-08-26T05:01:53.308Z,7.77
2022-08-26T05:04:21.262Z,6.03
2022-08-26T05:06:49.972Z,5.57
2022-08-26T05:09:18.482Z,4.70
2022-08-26T05:11:48.471Z,6.80
2022-08-26T05:14:22.158Z,5.13
2022-08-26T05:16:49.879Z,5.43
2022-08-26T05:19:19.262Z,5.30
2022-08-26T05:21:48.464Z,5.17
2022-08-26T05:24:17.196Z,5.27
2022-08-26T05:26:47.113Z,5.17
2022-08-26T05:29:16.164Z,5.17
2022-08-26T05:31:44.249Z,5.60
2022-08-26T05:34:12.510Z,5.50
2022-08-26T05:36:40.110Z,5.70
2022-08-26T05:39:10.411Z,5.27
2022-08-26T05:41:40.966Z,5.43
2022-08-26T05:44:11.502Z,6.03
2022-08-26T05:46:42.001Z,7.80
2022-08-26T05:49:14.063Z,6.20
2022-08-26T05:51:45.086Z,5.73
2022-08-26T05:54:21.700Z,6.33
2022-08-26T05:56:51.436Z,7.13
2022-08-26T05:59:21.393Z,5.73
2022-08-26T06:01:54.517Z,5.67
2022-08-26T06:04:24.764Z,6.97
2022-08-26T06:06:54.493Z,6.83
2022-08-26T06:09:21.926Z,6.90
2022-08-26T06:11:50.051Z,10.70
2022-08-26T06:14:17.921Z,6.70
2022-08-26T06:16:45.935Z,8.70
2022-08-26T06:19:15.483Z,7.27
2022-08-26T06:21:46.143Z,8.60
2022-08-26T06:24:33.230Z,8.17
2022-08-26T06:27:04.193Z,7.63
2022-08-26T06:29:34.311Z,7.63
2022-08-26T06:32:05.124Z,7.13
2022-08-26T06:34:35.828Z,6.43
2022-08-26T06:37:03.674Z,6.67
2022-08-26T06:39:31.940Z,6.63
2022-08-26T06:42:00.463Z,6.53
2022-08-26T06:44:30.526Z,6.53
2022-08-26T06:47:21.377Z,7.03
2022-08-26T06:50:07.769Z,6.27
2022-08-26T06:53:16.514Z,6.33
2022-08-26T07:07:52.418Z,6.43
2022-08-26T07:10:20.160Z,6.33
2022-08-26T07:12:48.913Z,14.13
2022-08-26T07:15:17.124Z,6.37
2022-08-26T07:17:44.826Z,6.17
2022-08-26T07:20:12.709Z,8.97
2022-08-26T07:22:40.065Z,6.45
2022-08-26T07:25:10.234Z,9.27
2022-08-26T07:27:38.409Z,6.50
2022-08-26T07:30:07.140Z,8.30
2022-08-26T07:32:34.585Z,6.10
2022-08-26T07:35:01.884Z,5.43
2022-08-26T07:37:30.594Z,7.28
2022-08-26T07:40:07.122Z,6.18
2022-08-26T07:42:36.836Z,6.38
2022-08-26T07:45:04.952Z,7.05
2022-08-26T07:47:32.663Z,15.70
2022-08-26T07:49:59.973Z,7.43
2022-08-26T07:52:29.781Z,8.77
2022-08-26T07:54:58.921Z,5.82
2022-08-26T07:57:28.243Z,6.10
2022-08-26T07:59:56.299Z,5.85
2022-08-26T08:02:25.485Z,6.47
2022-08-26T08:04:54.455Z,9.05
2022-08-26T08:07:38.746Z,7.07
2022-08-26T08:10:13.265Z,10.48
2022-08-26T08:12:41.632Z,9.27
2022-08-26T08:15:13.588Z,11.65
2022-08-26T08:17:44.157Z,7.43
2022-08-26T08:20:14.007Z,11.35
2022-08-26T08:22:42.528Z,6.72
2022-08-26T08:25:11.481Z,6.55
2022-08-26T08:27:41.721Z,9.43
2022-08-26T08:30:10.980Z,12.35
2022-08-26T08:32:43.587Z,8.30
2022-08-26T08:35:13.770Z,7.50
2022-08-26T08:37:43.547Z,6.55
2022-08-26T08:40:15.302Z,7.20
2022-08-26T08:43:20.696Z,6.90
2022-08-26T08:45:54.377Z,5.65
2022-08-26T08:48:29.468Z,6.47
2022-08-26T08:51:18.824Z,5.82
2022-08-26T08:53:49.705Z,6.32
2022-08-26T08:56:34.985Z,5.82
2022-08-26T08:59:26.712Z,6.30
2022-08-26T09:02:17.265Z,7.20
2022-08-26T09:05:06.517Z,5.53
2022-08-26T09:07:47.932Z,6.30
2022-08-26T09:10:23.334Z,6.38
2022-08-26T09:12:52.715Z,8.60
2022-08-26T09:15:35.038Z,6.38
2022-08-26T09:18:09.122Z,6.72
2022-08-26T09:20:47.485Z,6.25
2022-08-26T09:23:16.633Z,7.72
2022-08-26T09:25:47.982Z,10.50
2022-08-26T09:28:19.421Z,6.70
2022-08-26T09:30:59.257Z,7.97
2022-08-26T09:33:32.616Z,6.43
2022-08-26T09:36:43.641Z,7.53
2022-08-26T09:39:27.210Z,8.02
2022-08-26T09:42:22.455Z,11.40
2022-08-26T09:44:55.954Z,8.50
2022-08-26T09:47:38.300Z,8.95
2022-08-26T09:50:20.002Z,7.55
2022-08-26T09:53:02.985Z,7.07
2022-08-26T09:55:41.823Z,8.43
2022-08-26T09:58:32.767Z,12.52
2022-08-26T10:01:04.041Z,10.43
2022-08-26T10:03:35.958Z,7.72
2022-08-26T10:06:06.910Z,8.13
2022-08-26T10:08:39.781Z,8.98
2022-08-26T10:11:42.421Z,8.10
2022-08-26T10:14:15.916Z,8.20
2022-08-26T10:16:56.303Z,10.05
2022-08-26T10:19:41.828Z,11.35
2022-08-26T10:22:32.950Z,7.72
2022-08-26T10:25:03.857Z,7.35
2022-08-26T10:28:03.385Z,7.50
2022-08-26T10:30:48.932Z,9.07
2022-08-26T10:33:17.943Z,8.35
2022-08-26T10:35:53.675Z,9.48
2022-08-26T10:38:41.028Z,10.32
2022-08-26T10:41:21.552Z,11.32
2022-08-26T10:43:58.113Z,12.40
2022-08-26T10:46:35.801Z,12.23
2022-08-26T10:49:10.595Z,9.85
2022-08-26T10:51:59.277Z,10.25
2022-08-26T10:54:33.882Z,9.73
2022-08-26T10:57:33.646Z,10.55
2022-08-26T11:00:39.536Z,10.57
2022-08-26T11:03:23.269Z,10.60
2022-08-26T11:06:28.684Z,9.57
2022-08-26T11:09:01.430Z,10.05
2022-08-26T11:11:41.214Z,10.55
2022-08-26T11:14:28.414Z,12.23
2022-08-26T11:16:58.522Z,10.55
2022-08-26T11:19:59.568Z,12.57
2022-08-26T11:22:33.582Z,10.13
2022-08-26T11:25:05.316Z,11.32
2022-08-26T11:27:35.763Z,14.52
2022-08-26T11:30:34.802Z,10.38
2022-08-26T11:33:02.519Z,9.77
2022-08-26T11:35:38.728Z,10.02
2022-08-26T11:38:16.945Z,10.02
2022-08-26T11:41:12.113Z,12.27
2022-08-26T11:43:40.767Z,12.93
2022-08-26T11:46:11.480Z,13.30
2022-08-26T11:48:43.552Z,11.77
2022-08-26T11:51:21.252Z,11.60
2022-08-26T11:53:49.356Z,11.52
2022-08-26T11:56:35.001Z,11.60
2022-08-26T11:59:07.813Z,12.02
2022-08-26T12:01:42.738Z,13.02
2022-08-26T12:04:17.436Z,13.20
2022-08-26T12:06:51.111Z,13.55
2022-08-26T12:09:28.435Z,13.27
2022-08-26T12:12:22.025Z,15.70
2022-08-26T12:14:49.698Z,11.73
2022-08-26T12:17:25.693Z,11.98
2022-08-26T12:19:53.149Z,12.35
2022-08-26T12:22:25.186Z,14.80
2022-08-26T12:24:56.380Z,13.65
2022-08-26T12:27:30.973Z,15.05
2022-08-26T12:30:12.478Z,12.60
2022-08-26T12:33:22.349Z,13.05
2022-08-26T12:35:54.842Z,13.88
2022-08-26T12:38:26.638Z,12.27
2022-08-26T12:40:54.092Z,12.60
2022-08-26T12:43:44.065Z,13.85
2022-08-26T12:46:23.944Z,13.18
2022-08-26T12:48:51.276Z,11.60
2022-08-26T12:51:26.901Z,10.63
2022-08-26T12:53:54.803Z,10.18
2022-08-26T12:56:30.841Z,10.95
2022-08-26T12:59:05.271Z,9.63
2022-08-26T13:01:44.607Z,10.25
2022-08-26T13:04:35.917Z,10.63
2022-08-26T13:07:25.193Z,8.05
2022-08-26T13:09:58.225Z,9.80
2022-08-26T13:12:29.548Z,8.25
2022-08-26T13:14:58.801Z,8.40
2022-08-26T13:17:28.309Z,7.78
2022-08-26T13:20:00.067Z,8.88
2022-08-26T13:22:31.263Z,7.75
2022-08-26T13:24:58.636Z,12.32
2022-08-26T13:27:27.134Z,7.03
2022-08-26T13:29:57.577Z,7.47
2022-08-26T13:32:27.569Z,7.45
2022-08-26T13:34:56.911Z,6.95
2022-08-26T13:37:34.230Z,9.13
2022-08-26T13:40:05.501Z,8.43
2022-08-26T13:42:33.335Z,9.40
2022-08-26T13:45:02.374Z,8.52
2022-08-26T13:47:31.390Z,8.70
2022-08-26T13:50:00.293Z,9.15
2022-08-26T13:52:30.573Z,7.75
2022-08-26T13:55:01.654Z,22.70
2022-08-26T13:57:29.993Z,9.60
2022-08-26T13:59:59.195Z,10.68
2022-08-26T14:02:28.010Z,10.90
2022-08-26T14:04:55.846Z,16.90
2022-08-26T14:07:23.365Z,13.98
2022-08-26T14:09:50.846Z,17.52
2022-08-26T14:12:18.184Z,16.08
2022-08-26T14:14:45.548Z,15.52
2022-08-26T14:17:17.223Z,14.68
2022-08-26T14:19:46.830Z,16.25
2022-08-26T14:22:17.256Z,17.33
2022-08-26T14:24:45.410Z,15.40
2022-08-26T14:27:13.271Z,15.48
2022-08-26T14:29:41.155Z,17.13
2022-08-26T14:32:13.383Z,17.48
2022-08-26T14:34:42.107Z,17.58
2022-08-26T14:37:13.537Z,16.48
2022-08-26T14:39:43.113Z,17.48
2022-08-26T14:42:20.272Z,16.43
2022-08-26T14:44:53.053Z,14.88
2022-08-26T14:47:20.420Z,13.83
2022-08-26T14:49:47.745Z,15.30
2022-08-26T14:52:15.045Z,14.33
2022-08-26T14:54:42.402Z,13.23
2022-08-26T14:57:12.373Z,14.85
2022-08-26T14:59:43.319Z,14.68
2022-08-26T15:02:32.581Z,13.80
2022-08-26T15:05:02.738Z,14.25
2022-08-26T15:07:30.442Z,15.05
2022-08-26T15:09:57.720Z,16.67
2022-08-26T15:12:25.095Z,15.27
2022-08-26T15:14:52.374Z,16.40
2022-08-26T15:17:19.659Z,18.00
2022-08-26T15:19:47.319Z,17.50
2022-08-26T15:22:14.618Z,18.20
2022-08-26T15:24:42.093Z,17.60
2022-08-26T15:27:09.493Z,18.58
2022-08-26T15:29:37.349Z,18.67
2022-08-26T15:32:05.278Z,17.33
2022-08-26T15:34:32.582Z,15.75
2022-08-26T15:36:59.893Z,15.40
2022-08-26T15:39:27.564Z,16.23
2022-08-26T15:41:56.080Z,16.10
2022-08-26T15:44:26.986Z,15.40
2022-08-26T15:46:58.409Z,15.80
2022-08-26T15:49:27.430Z,14.73
2022-08-26T15:51:55.382Z,15.18
2022-08-26T15:54:23.732Z,13.23
2022-08-26T15:56:52.902Z,12.00
2022-08-26T15:59:21.540Z,12.80
2022-08-26T16:01:48.917Z,13.48
2022-08-26T16:04:17.505Z,10.75
2022-08-26T16:06:50.034Z,12.10
2022-08-26T16:09:18.105Z,10.27
2022-08-26T16:11:45.443Z,10.10
2022-08-26T16:14:12.841Z,10.57
2022-08-26T16:16:41.121Z,10.27
2022-08-26T16:19:09.265Z,9.68
2022-08-26T16:21:37.190Z,10.60
2022-08-26T16:24:05.489Z,11.52
2022-08-26T16:26:36.249Z,12.00
2022-08-26T16:29:08.600Z,11.83
2022-08-26T16:31:38.087Z,13.25
2022-08-26T16:34:06.801Z,13.70
2022-08-26T16:36:35.670Z,13.57
2022-08-26T16:39:04.620Z,16.92
2022-08-26T16:41:32.680Z,17.52
2022-08-26T16:43:59.989Z,18.50
2022-08-26T16:46:28.256Z,20.35
2022-08-26T16:48:57.287Z,22.30
2022-08-26T16:51:27.096Z,24.38
2022-08-26T16:53:56.235Z,25.02
2022-08-26T16:56:30.679Z,26.42
2022-08-26T16:59:04.423Z,25.27
2022-08-26T17:01:32.222Z,28.43
2022-08-26T17:03:59.735Z,27.58
2022-08-26T17:06:27.185Z,30.17
2022-08-26T17:08:54.475Z,29.15
2022-08-26T17:11:21.768Z,27.65
2022-08-26T17:13:49.033Z,27.92
2022-08-26T17:16:16.585Z,26.42
2022-08-26T17:18:44.112Z,26.17
2022-08-26T17:21:13.122Z,29.20
2022-08-26T17:23:42.863Z,27.23
2022-08-26T17:26:12.246Z,27.05
2022-08-26T17:28:40.620Z,26.85
2022-08-26T17:31:09.392Z,26.65
2022-08-26T17:33:37.667Z,28.80
2022-08-26T17:36:07.334Z,25.77
2022-08-26T17:38:36.177Z,26.98
2022-08-26T17:41:08.734Z,25.60
2022-08-26T17:43:37.563Z,24.73
2022-08-26T17:46:07.556Z,27.10
2022-08-26T17:48:39.490Z,24.38
2022-08-26T17:51:12.435Z,26.65
2022-08-26T17:53:44.263Z,25.13
2022-08-26T17:56:15.091Z,25.38
2022-08-26T17:58:51.368Z,23.57
2022-08-26T18:01:25.951Z,26.25
2022-08-26T18:04:00.079Z,25.97
2022-08-26T18:06:30.208Z,23.93
2022-08-26T18:08:58.073Z,24.00
2022-08-26T18:11:25.586Z,23.63
2022-08-26T18:13:53.380Z,25.23
2022-08-26T18:16:21.241Z,23.50
2022-08-26T18:18:53.286Z,24.17
2022-08-26T18:21:24.574Z,23.52
2022-08-26T18:23:53.335Z,21.90
2022-08-26T18:26:24.306Z,23.47
2022-08-26T18:28:52.477Z,23.13
2022-08-26T18:31:20.344Z,21.83
2022-08-26T18:34:13.613Z,22.80
2022-08-26T18:37:22.357Z,20.63
2022-08-26T18:39:55.179Z,21.80
2022-08-26T18:42:28.144Z,18.33
2022-08-26T18:44:56.169Z,19.30
2022-08-26T18:47:23.537Z,19.07
2022-08-26T18:49:51.342Z,19.10
2022-08-26T18:52:18.692Z,19.50
2022-08-26T18:54:46.509Z,18.67
2022-08-26T18:57:14.295Z,19.23
2022-08-26T19:03:54.765Z,15.80
2022-08-26T19:06:56.848Z,16.07
2022-08-26T19:09:28.373Z,15.27
2022-08-26T19:14:29.346Z,15.30
2022-08-26T19:16:56.758Z,14.17
2022-08-26T19:19:24.190Z,14.53
2022-08-26T19:21:52.504Z,13.87
2022-08-26T19:24:20.409Z,14.73
2022-08-26T19:26:57.463Z,14.07
2022-08-26T19:29:28.445Z,12.83
2022-08-26T19:31:56.753Z,13.90
2022-08-26T19:34:24.407Z,13.70
2022-08-26T19:36:54.565Z,14.67
2022-08-26T19:39:22.199Z,14.63
2022-08-26T19:41:49.934Z,12.50
2022-08-26T19:44:38.201Z,13.43
2022-08-26T19:47:09.677Z,13.63
2022-08-26T19:49:37.869Z,13.57
2022-08-26T19:52:05.978Z,13.43
2022-08-26T19:54:34.481Z,13.13
2022-08-26T19:57:02.297Z,13.77
2022-08-26T19:59:29.743Z,14.13
2022-08-26T20:02:01.483Z,13.50
2022-08-26T20:04:31.417Z,13.57
2022-08-26T20:07:00.457Z,12.00
2022-08-26T20:09:29.694Z,13.30
2022-08-26T20:11:57.200Z,13.63
2022-08-26T20:14:26.793Z,12.87
2022-08-26T20:16:54.315Z,12.13
2022-08-26T20:19:40.950Z,13.67
2022-08-26T20:22:08.731Z,12.47
2022-08-26T20:24:36.408Z,12.27
2022-08-26T20:27:07.671Z,12.50
2022-08-26T20:29:36.671Z,13.07
2022-08-26T20:32:06.077Z,13.50
2022-08-26T20:34:34.991Z,12.87
2022-08-26T20:37:03.069Z,12.30
2022-08-26T20:39:30.488Z,13.80
2022-08-26T20:41:58.206Z,12.13
2022-08-26T20:44:25.946Z,13.47
2022-08-26T20:46:53.357Z,13.00
2022-08-26T20:49:21.185Z,12.43
2022-08-26T20:51:52.030Z,11.80
2022-08-26T20:54:26.229Z,12.27
2022-08-26T20:56:57.395Z,13.27
2022-08-26T20:59:25.406Z,11.70
2022-08-26T21:01:53.009Z,12.23
2022-08-26T21:04:24.091Z,11.23
2022-08-26T21:06:52.818Z,11.43
2022-08-26T21:09:22.651Z,11.60
2022-08-26T21:11:50.283Z,10.40
2022-08-26T21:14:18.863Z,12.10
2022-08-26T21:16:46.660Z,11.87
2022-08-26T21:19:17.540Z,10.77
2022-08-26T21:21:46.984Z,12.53
2022-08-26T21:24:15.040Z,10.87
2022-08-26T21:26:42.893Z,11.10
2022-08-26T21:29:10.480Z,12.53
2022-08-26T21:31:43.578Z,10.53
2022-08-26T21:34:14.487Z,10.63
2022-08-26T21:36:41.869Z,11.07
2022-08-26T21:39:11.977Z,11.20
2022-08-26T21:41:41.616Z,10.70
2022-08-26T21:44:09.983Z,10.27
2022-08-26T21:46:37.433Z,11.13
2022-08-26T21:49:08.902Z,10.00
2022-08-26T21:51:39.381Z,11.23
2022-08-26T21:54:10.748Z,11.87
2022-08-26T21:56:42.040Z,10.43
2022-08-26T21:59:09.532Z,10.20
2022-08-26T22:01:37.674Z,10.03
2022-08-26T22:04:07.765Z,11.07
2022-08-26T22:06:43.810Z,9.87
2022-08-26T22:09:13.146Z,10.50
2022-08-26T22:11:41.049Z,10.10
2022-08-26T22:14:09.225Z,9.70
2022-08-26T22:16:36.780Z,10.33
2022-08-26T22:19:05.358Z,10.13
2022-08-26T22:21:33.936Z,10.80
2022-08-26T22:24:01.688Z,13.20
2022-08-26T22:26:31.292Z,11.50
2022-08-26T22:29:00.598Z,11.53
2022-08-26T22:31:37.563Z,12.90
2022-08-26T22:34:09.346Z,11.00
2022-08-26T22:36:43.098Z,10.53
2022-08-26T22:39:13.608Z,9.77
2022-08-26T22:41:42.929Z,10.47
2022-08-26T22:44:11.782Z,9.60
2022-08-26T22:46:40.749Z,9.93
2022-08-26T22:49:10.077Z,11.60
2022-08-26T22:51:37.716Z,10.97
2022-08-26T22:54:05.883Z,10.07
2022-08-26T22:56:33.960Z,10.10
2022-08-26T22:59:01.391Z,12.17
2022-08-26T23:01:28.781Z,13.23
2022-08-26T23:03:56.190Z,10.20
2022-08-26T23:06:24.094Z,10.03
2022-08-26T23:08:53.024Z,10.63
2022-08-26T23:11:20.467Z,10.33
2022-08-26T23:13:47.787Z,9.90
2022-08-26T23:16:15.166Z,10.50
2022-08-26T23:18:42.849Z,9.90
2022-08-26T23:21:10.746Z,9.27
2022-08-26T23:23:38.526Z,9.70
2022-08-26T23:26:07.683Z,9.97
2022-08-26T23:28:37.471Z,8.97
2022-08-26T23:31:06.036Z,13.17
2022-08-26T23:33:52.055Z,10.97
2022-08-26T23:36:22.545Z,13.43
2022-08-26T23:38:53.125Z,9.57
2022-08-26T23:41:22.894Z,9.07
2022-08-26T23:43:51.492Z,8.87
2022-08-26T23:46:19.739Z,9.23
2022-08-26T23:48:47.801Z,11.67
2022-08-26T23:51:33.761Z,9.07
2022-08-26T23:54:01.614Z,7.73
2022-08-26T23:56:29.093Z,8.80
2022-08-26T23:58:56.686Z,9.53
